sensor_id;sensor_type;location;lat;lon;timestamp;pressure;altitude;pressure_sealevel;temperature;humidity
29903;BME280;30288;50.514;9.678;2022-08-03T00:01:46;98800.50;;;14.38;100.00
29903;BME280;30288;50.514;9.678;2022-08-03T00:03:57;98801.25;;;14.40;100.00
29903;BME280;30288;50.514;9.678;2022-08-03T00:06:17;98788.81;;;14.54;100.00
29903;BME280;30288;50.514;9.678;2022-08-03T00:08:28;98789.63;;;14.55;100.00
29903;BME280;30288;50.514;9.678;2022-08-03T00:10:45;98792.25;;;14.53;100.00
29903;BME280;30288;50.514;9.678;2022-08-03T00:12:57;98795.91;;;14.46;100.00
29903;BME280;30288;50.514;9.678;2022-08-03T00:15:14;98791.72;;;14.45;100.00
29903;BME280;30288;50.514;9.678;2022-08-03T00:17:25;98787.56;;;14.44;100.00
29903;BME280;30288;50.514;9.678;2022-08-03T00:19:51;98791.09;;;14.40;100.00
29903;BME280;30288;50.514;9.678;2022-08-03T00:22:10;98796.16;;;14.40;100.00
29903;BME280;30288;50.514;9.678;2022-08-03T00:24:21;98794.66;;;14.36;100.00
29903;BME280;30288;50.514;9.678;2022-08-03T00:26:38;98791.00;;;14.43;100.00
29903;BME280;30288;50.514;9.678;2022-08-03T00:28:49;98789.59;;;14.36;100.00
29903;BME280;30288;50.514;9.678;2022-08-03T00:31:01;98788.28;;;14.26;100.00
29903;BME280;30288;50.514;9.678;2022-08-03T00:33:18;98793.88;;;14.14;100.00
29903;BME280;30288;50.514;9.678;2022-08-03T00:35:30;98789.66;;;14.14;100.00
29903;BME280;30288;50.514;9.678;2022-08-03T00:37:54;98788.03;;;14.12;100.00
29903;BME280;30288;50.514;9.678;2022-08-03T00:40:13;98792.22;;;14.13;100.00
29903;BME280;30288;50.514;9.678;2022-08-03T00:42:24;98797.69;;;14.03;100.00
29903;BME280;30288;50.514;9.678;2022-08-03T00:44:42;98792.03;;;13.97;100.00
29903;BME280;30288;50.514;9.678;2022-08-03T00:46:54;98799.72;;;13.95;100.00
29903;BME280;30288;50.514;9.678;2022-08-03T00:49:07;98788.44;;;14.02;100.00
29903;BME280;30288;50.514;9.678;2022-08-03T00:51:24;98792.09;;;13.95;100.00
29903;BME280;30288;50.514;9.678;2022-08-03T00:53:38;98791.78;;;14.03;100.00
29903;BME280;30288;50.514;9.678;2022-08-03T00:55:50;98792.03;;;13.97;100.00
29903;BME280;30288;50.514;9.678;2022-08-03T00:58:08;98782.84;;;13.94;100.00
29903;BME280;30288;50.514;9.678;2022-08-03T01:00:21;98788.16;;;13.88;100.00
29903;BME280;30288;50.514;9.678;2022-08-03T01:02:40;98782.41;;;13.85;100.00
29903;BME280;30288;50.514;9.678;2022-08-03T01:04:51;98790.06;;;13.83;100.00
29903;BME280;30288;50.514;9.678;2022-08-03T01:07:18;98789.13;;;13.86;100.00
29903;BME280;30288;50.514;9.678;2022-08-03T01:09:52;98796.13;;;13.79;100.00
29903;BME280;30288;50.514;9.678;2022-08-03T01:12:21;98793.72;;;13.76;100.00
29903;BME280;30288;50.514;9.678;2022-08-03T01:14:41;98789.81;;;13.89;100.00
29903;BME280;30288;50.514;9.678;2022-08-03T01:16:52;98794.13;;;13.87;100.00
29903;BME280;30288;50.514;9.678;2022-08-03T01:19:30;98788.28;;;13.85;100.00
29903;BME280;30288;50.514;9.678;2022-08-03T01:21:58;98793.69;;;13.78;100.00
29903;BME280;30288;50.514;9.678;2022-08-03T01:24:22;98797.38;;;13.69;100.00
29903;BME280;30288;50.514;9.678;2022-08-03T01:27:02;98794.31;;;13.61;100.00
29903;BME280;30288;50.514;9.678;2022-08-03T01:29:56;98787.97;;;13.51;100.00
29903;BME280;30288;50.514;9.678;2022-08-03T01:32:14;98787.16;;;13.50;100.00
29903;BME280;30288;50.514;9.678;2022-08-03T01:34:46;98788.81;;;13.51;100.00
29903;BME280;30288;50.514;9.678;2022-08-03T01:37:02;98787.22;;;13.49;100.00
29903;BME280;30288;50.514;9.678;2022-08-03T01:39:22;98787.63;;;13.60;100.00
29903;BME280;30288;50.514;9.678;2022-08-03T01:41:47;98782.81;;;13.54;100.00
29903;BME280;30288;50.514;9.678;2022-08-03T01:44:02;98788.09;;;13.48;100.00
29903;BME280;30288;50.514;9.678;2022-08-03T01:46:22;98789.81;;;13.47;100.00
29903;BME280;30288;50.514;9.678;2022-08-03T01:48:37;98788.34;;;13.42;100.00
29903;BME280;30288;50.514;9.678;2022-08-03T01:50:50;98790.00;;;13.43;100.00
29903;BME280;30288;50.514;9.678;2022-08-03T01:53:13;98793.53;;;13.39;100.00
29903;BME280;30288;50.514;9.678;2022-08-03T01:55:26;98792.88;;;13.34;100.00
29903;BME280;30288;50.514;9.678;2022-08-03T01:57:48;98790.50;;;13.29;100.00
29903;BME280;30288;50.514;9.678;2022-08-03T02:00:09;98788.09;;;13.26;100.00
29903;BME280;30288;50.514;9.678;2022-08-03T02:02:24;98785.38;;;13.31;100.00
29903;BME280;30288;50.514;9.678;2022-08-03T02:04:43;98782.34;;;13.44;100.00
29903;BME280;30288;50.514;9.678;2022-08-03T02:06:56;98783.28;;;13.42;100.00
29903;BME280;30288;50.514;9.678;2022-08-03T02:09:12;98785.28;;;13.34;100.00
29903;BME280;30288;50.514;9.678;2022-08-03T02:11:31;98776.03;;;13.33;100.00
29903;BME280;30288;50.514;9.678;2022-08-03T02:13:45;98782.97;;;13.28;100.00
29903;BME280;30288;50.514;9.678;2022-08-03T02:15:59;98779.78;;;13.23;100.00
29903;BME280;30288;50.514;9.678;2022-08-03T02:18:14;98779.16;;;13.18;100.00
29903;BME280;30288;50.514;9.678;2022-08-03T02:20:27;98782.69;;;13.13;100.00
29903;BME280;30288;50.514;9.678;2022-08-03T02:22:42;98782.75;;;13.10;100.00
29903;BME280;30288;50.514;9.678;2022-08-03T02:25:01;98772.59;;;13.12;100.00
29903;BME280;30288;50.514;9.678;2022-08-03T02:27:20;98776.28;;;13.03;100.00
29903;BME280;30288;50.514;9.678;2022-08-03T02:29:33;98772.50;;;12.92;100.00
29903;BME280;30288;50.514;9.678;2022-08-03T02:31:51;98771.69;;;12.91;100.00
29903;BME280;30288;50.514;9.678;2022-08-03T02:34:11;98781.28;;;13.05;100.00
29903;BME280;30288;50.514;9.678;2022-08-03T02:36:31;98778.16;;;12.98;100.00
29903;BME280;30288;50.514;9.678;2022-08-03T02:38:45;98774.53;;;13.05;100.00
29903;BME280;30288;50.514;9.678;2022-08-03T02:41:11;98774.63;;;13.02;100.00
29903;BME280;30288;50.514;9.678;2022-08-03T02:43:24;98776.41;;;13.00;100.00
29903;BME280;30288;50.514;9.678;2022-08-03T02:45:52;98774.78;;;12.98;100.00
29903;BME280;30288;50.514;9.678;2022-08-03T02:48:10;98769.06;;;12.93;100.00
29903;BME280;30288;50.514;9.678;2022-08-03T02:50:28;98771.91;;;12.85;100.00
29903;BME280;30288;50.514;9.678;2022-08-03T02:52:44;98761.13;;;12.80;100.00
29903;BME280;30288;50.514;9.678;2022-08-03T02:54:59;98769.50;;;12.82;100.00
29903;BME280;30288;50.514;9.678;2022-08-03T02:57:13;98762.00;;;12.79;100.00
29903;BME280;30288;50.514;9.678;2022-08-03T02:59:33;98763.44;;;12.86;100.00
29903;BME280;30288;50.514;9.678;2022-08-03T03:01:44;98763.53;;;12.83;100.00
29903;BME280;30288;50.514;9.678;2022-08-03T03:03:57;98765.31;;;12.81;100.00
29903;BME280;30288;50.514;9.678;2022-08-03T03:06:50;98772.78;;;12.84;100.00
29903;BME280;30288;50.514;9.678;2022-08-03T03:09:03;98761.97;;;12.81;100.00
29903;BME280;30288;50.514;9.678;2022-08-03T03:11:22;98773.22;;;12.95;100.00
29903;BME280;30288;50.514;9.678;2022-08-03T03:13:35;98770.16;;;12.87;100.00
29903;BME280;30288;50.514;9.678;2022-08-03T03:15:54;98768.28;;;12.92;100.00
29903;BME280;30288;50.514;9.678;2022-08-03T03:18:07;98764.28;;;12.87;100.00
29903;BME280;30288;50.514;9.678;2022-08-03T03:20:26;98759.56;;;12.78;100.00
29903;BME280;30288;50.514;9.678;2022-08-03T03:22:43;98758.94;;;12.71;100.00
29903;BME280;30288;50.514;9.678;2022-08-03T03:24:55;98761.59;;;12.68;100.00
29903;BME280;30288;50.514;9.678;2022-08-03T03:27:13;98760.81;;;12.66;100.00
29903;BME280;30288;50.514;9.678;2022-08-03T03:29:26;98766.06;;;12.60;100.00
29903;BME280;30288;50.514;9.678;2022-08-03T03:31:40;98767.94;;;12.55;100.00
29903;BME280;30288;50.514;9.678;2022-08-03T03:33:58;98769.69;;;12.53;100.00
29903;BME280;30288;50.514;9.678;2022-08-03T03:36:09;98763.88;;;12.51;100.00
29903;BME280;30288;50.514;9.678;2022-08-03T03:38:24;98767.94;;;12.55;100.00
29903;BME280;30288;50.514;9.678;2022-08-03T03:40:35;98764.66;;;12.53;100.00
29903;BME280;30288;50.514;9.678;2022-08-03T03:42:48;98767.94;;;12.55;100.00
29903;BME280;30288;50.514;9.678;2022-08-03T03:45:02;98773.09;;;12.52;100.00
29903;BME280;30288;50.514;9.678;2022-08-03T03:47:19;98768.16;;;12.49;100.00
29903;BME280;30288;50.514;9.678;2022-08-03T03:49:35;98767.34;;;12.48;100.00
29903;BME280;30288;50.514;9.678;2022-08-03T03:51:40;98766.06;;;12.60;100.00
29903;BME280;30288;50.514;9.678;2022-08-03T03:54:02;98774.22;;;12.68;100.00
29903;BME280;30288;50.514;9.678;2022-08-03T03:56:14;98771.88;;;12.63;100.00
29903;BME280;30288;50.514;9.678;2022-08-03T03:58:32;98767.72;;;12.61;100.00
29903;BME280;30288;50.514;9.678;2022-08-03T04:00:43;98773.47;;;12.64;100.00
29903;BME280;30288;50.514;9.678;2022-08-03T04:03:00;98770.38;;;12.58;100.00
29903;BME280;30288;50.514;9.678;2022-08-03T04:05:13;98778.94;;;12.54;100.00
29903;BME280;30288;50.514;9.678;2022-08-03T04:07:41;98776.41;;;12.54;100.00
29903;BME280;30288;50.514;9.678;2022-08-03T04:10:15;98769.16;;;12.68;100.00
29903;BME280;30288;50.514;9.678;2022-08-03T04:12:42;98763.34;;;12.66;100.00
29903;BME280;30288;50.514;9.678;2022-08-03T04:14:53;98769.25;;;12.65;100.00
29903;BME280;30288;50.514;9.678;2022-08-03T04:17:14;98767.72;;;12.61;100.00
29903;BME280;30288;50.514;9.678;2022-08-03T04:19:31;98767.19;;;12.76;100.00
29903;BME280;30288;50.514;9.678;2022-08-03T04:21:53;98764.28;;;12.87;100.00
29903;BME280;30288;50.514;9.678;2022-08-03T04:24:08;98769.50;;;12.82;100.00
29903;BME280;30288;50.514;9.678;2022-08-03T04:26:25;98770.38;;;12.81;100.00
29903;BME280;30288;50.514;9.678;2022-08-03T04:28:31;98774.63;;;12.79;100.00
29903;BME280;30288;50.514;9.678;2022-08-03T04:30:46;98766.97;;;12.82;100.00
29903;BME280;30288;50.514;9.678;2022-08-03T04:33:01;98768.38;;;12.89;100.00
29903;BME280;30288;50.514;9.678;2022-08-03T04:35:13;98776.28;;;13.03;100.00
29903;BME280;30288;50.514;9.678;2022-08-03T04:37:32;98771.50;;;13.19;100.00
29903;BME280;30288;50.514;9.678;2022-08-03T04:39:52;98772.22;;;13.23;100.00
29903;BME280;30288;50.514;9.678;2022-08-03T04:42:08;98777.16;;;13.26;100.00
29903;BME280;30288;50.514;9.678;2022-08-03T04:44:15;98774.50;;;13.29;100.00
29903;BME280;30288;50.514;9.678;2022-08-03T04:46:38;98779.34;;;13.35;100.00
29903;BME280;30288;50.514;9.678;2022-08-03T04:49:00;98781.78;;;13.36;100.00
29903;BME280;30288;50.514;9.678;2022-08-03T04:51:18;98776.56;;;13.41;100.00
29903;BME280;30288;50.514;9.678;2022-08-03T04:53:30;98782.16;;;13.49;100.00
29903;BME280;30288;50.514;9.678;2022-08-03T04:55:46;98785.34;;;13.54;100.00
29903;BME280;30288;50.514;9.678;2022-08-03T04:58:02;98783.28;;;13.64;100.00
29903;BME280;30288;50.514;9.678;2022-08-03T05:00:21;98788.66;;;13.76;100.00
29903;BME280;30288;50.514;9.678;2022-08-03T05:02:32;98790.88;;;13.84;100.00
29903;BME280;30288;50.514;9.678;2022-08-03T05:04:43;98785.38;;;13.94;100.00
29903;BME280;30288;50.514;9.678;2022-08-03T05:07:01;98785.91;;;14.02;100.00
29903;BME280;30288;50.514;9.678;2022-08-03T05:09:19;98781.22;;;14.14;100.00
29903;BME280;30288;50.514;9.678;2022-08-03T05:11:37;98789.94;;;14.27;100.00
29903;BME280;30288;50.514;9.678;2022-08-03T05:13:51;98791.25;;;14.37;100.00
29903;BME280;30288;50.514;9.678;2022-08-03T05:16:03;98796.06;;;14.43;100.00
29903;BME280;30288;50.514;9.678;2022-08-03T05:18:20;98787.19;;;14.53;100.00
29903;BME280;30288;50.514;9.678;2022-08-03T05:20:32;98783.38;;;14.63;100.00
29903;BME280;30288;50.514;9.678;2022-08-03T05:22:48;98782.81;;;14.75;100.00
29903;BME280;30288;50.514;9.678;2022-08-03T05:25:00;98785.09;;;14.81;100.00
29903;BME280;30288;50.514;9.678;2022-08-03T05:27:12;98788.88;;;14.92;100.00
29903;BME280;30288;50.514;9.678;2022-08-03T05:29:35;98790.84;;;15.04;100.00
29903;BME280;30288;50.514;9.678;2022-08-03T05:31:46;98788.78;;;15.12;100.00
29903;BME280;30288;50.514;9.678;2022-08-03T05:34:03;98785.75;;;15.22;100.00
29903;BME280;30288;50.514;9.678;2022-08-03T05:36:15;98795.56;;;15.30;100.00
29903;BME280;30288;50.514;9.678;2022-08-03T05:38:26;98800.22;;;15.39;100.00
29903;BME280;30288;50.514;9.678;2022-08-03T05:40:44;98792.81;;;15.53;100.00
29903;BME280;30288;50.514;9.678;2022-08-03T05:43:04;98795.59;;;15.66;100.00
29903;BME280;30288;50.514;9.678;2022-08-03T05:45:24;98792.53;;;15.77;100.00
29903;BME280;30288;50.514;9.678;2022-08-03T05:47:36;98796.28;;;15.87;100.00
29903;BME280;30288;50.514;9.678;2022-08-03T05:49:47;98793.91;;;16.01;100.00
29903;BME280;30288;50.514;9.678;2022-08-03T05:52:04;98784.59;;;16.17;100.00
29903;BME280;30288;50.514;9.678;2022-08-03T05:54:19;98783.84;;;16.32;100.00
29903;BME280;30288;50.514;9.678;2022-08-03T05:56:37;98783.22;;;16.44;100.00
29903;BME280;30288;50.514;9.678;2022-08-03T05:58:48;98782.34;;;16.63;100.00
29903;BME280;30288;50.514;9.678;2022-08-03T06:01:02;98784.00;;;16.79;100.00
29903;BME280;30288;50.514;9.678;2022-08-03T06:03:20;98779.75;;;16.95;100.00
29903;BME280;30288;50.514;9.678;2022-08-03T06:05:27;98781.56;;;17.09;100.00
29903;BME280;30288;50.514;9.678;2022-08-03T06:07:38;98778.91;;;17.26;100.00
29903;BME280;30288;50.514;9.678;2022-08-03T06:09:56;98779.72;;;17.42;100.00
29903;BME280;30288;50.514;9.678;2022-08-03T06:12:23;98787.28;;;17.60;100.00
29903;BME280;30288;50.514;9.678;2022-08-03T06:14:34;98784.78;;;17.74;100.00
29903;BME280;30288;50.514;9.678;2022-08-03T06:16:49;98774.38;;;17.92;100.00
29903;BME280;30288;50.514;9.678;2022-08-03T06:19:00;98784.53;;;18.08;100.00
29903;BME280;30288;50.514;9.678;2022-08-03T06:21:18;98780.00;;;18.27;100.00
29903;BME280;30288;50.514;9.678;2022-08-03T06:23:27;98785.84;;;18.44;100.00
29903;BME280;30288;50.514;9.678;2022-08-03T06:25:45;98779.03;;;18.58;100.00
29903;BME280;30288;50.514;9.678;2022-08-03T06:27:57;98780.38;;;18.78;100.00
29903;BME280;30288;50.514;9.678;2022-08-03T06:30:15;98779.13;;;18.85;100.00
29903;BME280;30288;50.514;9.678;2022-08-03T06:32:31;98778.91;;;19.02;100.00
29903;BME280;30288;50.514;9.678;2022-08-03T06:34:48;98779.94;;;19.27;100.00
29903;BME280;30288;50.514;9.678;2022-08-03T06:37:00;98779.53;;;19.47;100.00
29903;BME280;30288;50.514;9.678;2022-08-03T06:39:16;98780.00;;;19.66;100.00
29903;BME280;30288;50.514;9.678;2022-08-03T06:41:31;98784.75;;;19.85;100.00
29903;BME280;30288;50.514;9.678;2022-08-03T06:43:48;98782.94;;;19.99;100.00
29903;BME280;30288;50.514;9.678;2022-08-03T06:46:05;98786.84;;;20.18;100.00
29903;BME280;30288;50.514;9.678;2022-08-03T06:48:19;98778.25;;;20.44;100.00
29903;BME280;30288;50.514;9.678;2022-08-03T06:50:38;98787.88;;;20.66;100.00
29903;BME280;30288;50.514;9.678;2022-08-03T06:52:51;98791.34;;;20.77;100.00
29903;BME280;30288;50.514;9.678;2022-08-03T06:55:09;98785.38;;;20.89;100.00
29903;BME280;30288;50.514;9.678;2022-08-03T07:06:50;98786.09;;;21.75;100.00
29903;BME280;30288;50.514;9.678;2022-08-03T07:09:08;98788.03;;;21.96;100.00
29903;BME280;30288;50.514;9.678;2022-08-03T07:11:19;98786.44;;;22.06;100.00
29903;BME280;30288;50.514;9.678;2022-08-03T07:13:30;98790.47;;;22.32;100.00
29903;BME280;30288;50.514;9.678;2022-08-03T07:15:47;98783.94;;;22.50;100.00
29903;BME280;30288;50.514;9.678;2022-08-03T07:18:04;98783.03;;;22.74;100.00
29903;BME280;30288;50.514;9.678;2022-08-03T07:20:21;98779.84;;;23.03;100.00
29903;BME280;30288;50.514;9.678;2022-08-03T07:22:34;98783.19;;;23.15;100.00
29903;BME280;30288;50.514;9.678;2022-08-03T07:24:46;98781.22;;;23.19;100.00
29903;BME280;30288;50.514;9.678;2022-08-03T07:27:04;98783.84;;;23.39;100.00
29903;BME280;30288;50.514;9.678;2022-08-03T07:29:15;98777.47;;;23.66;100.00
29903;BME280;30288;50.514;9.678;2022-08-03T07:31:32;98778.53;;;23.84;100.00
29903;BME280;30288;50.514;9.678;2022-08-03T07:33:43;98779.09;;;24.08;100.00
29903;BME280;30288;50.514;9.678;2022-08-03T07:35:54;98775.47;;;24.31;100.00
29903;BME280;30288;50.514;9.678;2022-08-03T07:38:13;98763.28;;;24.64;100.00
29903;BME280;30288;50.514;9.678;2022-08-03T07:40:29;98769.88;;;24.87;100.00
29903;BME280;30288;50.514;9.678;2022-08-03T07:42:46;98763.13;;;25.05;100.00
29903;BME280;30288;50.514;9.678;2022-08-03T07:45:01;98764.50;;;25.09;100.00
29903;BME280;30288;50.514;9.678;2022-08-03T07:47:18;98766.44;;;25.26;100.00
29903;BME280;30288;50.514;9.678;2022-08-03T07:49:30;98768.22;;;25.45;100.00
29903;BME280;30288;50.514;9.678;2022-08-03T07:51:47;98761.03;;;25.68;100.00
29903;BME280;30288;50.514;9.678;2022-08-03T07:54:21;98761.53;;;26.00;99.25
29903;BME280;30288;50.514;9.678;2022-08-03T07:56:33;98758.50;;;26.24;97.89
29903;BME280;30288;50.514;9.678;2022-08-03T07:58:50;98757.53;;;26.35;96.11
29903;BME280;30288;50.514;9.678;2022-08-03T08:01:02;98756.19;;;26.58;91.00
29903;BME280;30288;50.514;9.678;2022-08-03T08:03:20;98747.41;;;26.78;96.77
29903;BME280;30288;50.514;9.678;2022-08-03T08:05:32;98752.34;;;26.99;97.59
29903;BME280;30288;50.514;9.678;2022-08-03T08:07:50;98747.31;;;26.97;90.83
29903;BME280;30288;50.514;9.678;2022-08-03T08:10:05;98757.22;;;27.20;97.54
29903;BME280;30288;50.514;9.678;2022-08-03T08:12:18;98745.72;;;27.32;87.38
29903;BME280;30288;50.514;9.678;2022-08-03T08:14:35;98746.91;;;27.55;87.85
29903;BME280;30288;50.514;9.678;2022-08-03T08:16:46;98741.75;;;27.81;85.27
29903;BME280;30288;50.514;9.678;2022-08-03T08:19:03;98742.38;;;28.01;85.79
29903;BME280;30288;50.514;9.678;2022-08-03T08:21:14;98736.41;;;28.26;83.66
29903;BME280;30288;50.514;9.678;2022-08-03T08:23:26;98731.47;;;28.49;81.73
29903;BME280;30288;50.514;9.678;2022-08-03T08:25:45;98734.41;;;28.54;78.18
29903;BME280;30288;50.514;9.678;2022-08-03T08:27:57;98734.63;;;28.68;80.50
29903;BME280;30288;50.514;9.678;2022-08-03T08:30:23;98731.19;;;28.94;75.78
29903;BME280;30288;50.514;9.678;2022-08-03T08:32:37;98726.75;;;28.78;70.47
29903;BME280;30288;50.514;9.678;2022-08-03T08:34:49;98730.31;;;28.85;72.07
29903;BME280;30288;50.514;9.678;2022-08-03T08:37:01;98731.84;;;29.12;74.90
29903;BME280;30288;50.514;9.678;2022-08-03T08:39:12;98728.78;;;29.25;72.16
29903;BME280;30288;50.514;9.678;2022-08-03T08:41:29;98725.56;;;29.39;73.32
29903;BME280;30288;50.514;9.678;2022-08-03T08:43:48;98733.19;;;29.65;70.73
29903;BME280;30288;50.514;9.678;2022-08-03T08:45:59;98727.97;;;29.81;70.70
29903;BME280;30288;50.514;9.678;2022-08-03T08:48:12;98737.41;;;29.98;67.37
29903;BME280;30288;50.514;9.678;2022-08-03T08:50:27;98727.59;;;30.24;66.34
29903;BME280;30288;50.514;9.678;2022-08-03T08:52:40;98730.50;;;30.29;62.40
29903;BME280;30288;50.514;9.678;2022-08-03T08:54:52;98723.66;;;30.36;65.69
29903;BME280;30288;50.514;9.678;2022-08-03T08:57:15;98722.56;;;30.62;66.28
29903;BME280;30288;50.514;9.678;2022-08-03T08:59:40;98725.47;;;30.67;61.85
29903;BME280;30288;50.514;9.678;2022-08-03T09:01:59;98721.97;;;30.60;63.41
29903;BME280;30288;50.514;9.678;2022-08-03T09:04:12;98717.94;;;30.80;63.07
29903;BME280;30288;50.514;9.678;2022-08-03T09:06:31;98718.63;;;30.74;60.30
29903;BME280;30288;50.514;9.678;2022-08-03T09:08:42;98729.91;;;31.20;62.79
29903;BME280;30288;50.514;9.678;2022-08-03T09:11:00;98719.84;;;31.40;61.42
29903;BME280;30288;50.514;9.678;2022-08-03T09:13:17;98722.47;;;31.32;60.01
29903;BME280;30288;50.514;9.678;2022-08-03T09:15:30;98717.75;;;31.35;57.77
29903;BME280;30288;50.514;9.678;2022-08-03T09:17:43;98716.25;;;31.41;56.92
29903;BME280;30288;50.514;9.678;2022-08-03T09:20:07;98708.50;;;31.33;55.64
29903;BME280;30288;50.514;9.678;2022-08-03T09:22:15;98716.84;;;31.65;58.55
29903;BME280;30288;50.514;9.678;2022-08-03T09:24:32;98711.19;;;31.62;57.51
29903;BME280;30288;50.514;9.678;2022-08-03T09:26:50;98714.81;;;31.76;57.08
29903;BME280;30288;50.514;9.678;2022-08-03T09:29:08;98710.03;;;31.79;56.94
29903;BME280;30288;50.514;9.678;2022-08-03T09:31:31;98711.50;;;31.96;56.92
29903;BME280;30288;50.514;9.678;2022-08-03T09:33:46;98707.94;;;31.97;53.70
29903;BME280;30288;50.514;9.678;2022-08-03T09:35:59;98702.22;;;32.17;56.02
29903;BME280;30288;50.514;9.678;2022-08-03T09:38:18;98705.44;;;32.19;55.70
29903;BME280;30288;50.514;9.678;2022-08-03T09:40:33;98702.38;;;32.30;55.45
29903;BME280;30288;50.514;9.678;2022-08-03T09:42:56;98698.41;;;32.34;55.17
29903;BME280;30288;50.514;9.678;2022-08-03T09:45:25;98700.75;;;32.29;56.18
29903;BME280;30288;50.514;9.678;2022-08-03T09:47:43;98701.56;;;32.29;56.28
29903;BME280;30288;50.514;9.678;2022-08-03T09:49:57;98698.94;;;32.44;54.28
29903;BME280;30288;50.514;9.678;2022-08-03T09:52:17;98695.53;;;32.29;52.21
29903;BME280;30288;50.514;9.678;2022-08-03T09:54:50;98698.25;;;32.21;51.56
29903;BME280;30288;50.514;9.678;2022-08-03T09:56:56;98701.25;;;32.09;54.55
29903;BME280;30288;50.514;9.678;2022-08-03T09:59:24;98704.78;;;32.02;54.14
29903;BME280;30288;50.514;9.678;2022-08-03T10:01:39;98697.34;;;32.13;54.17
29903;BME280;30288;50.514;9.678;2022-08-03T10:03:59;98700.09;;;32.27;52.45
29903;BME280;30288;50.514;9.678;2022-08-03T10:06:18;98694.44;;;32.08;50.97
29903;BME280;30288;50.514;9.678;2022-08-03T10:08:29;98692.09;;;32.43;52.54
29903;BME280;30288;50.514;9.678;2022-08-03T10:10:42;98681.00;;;32.70;52.40
29903;BME280;30288;50.514;9.678;2022-08-03T10:13:00;98692.19;;;32.85;54.54
29903;BME280;30288;50.514;9.678;2022-08-03T10:15:12;98680.72;;;33.01;51.36
29903;BME280;30288;50.514;9.678;2022-08-03T10:17:31;98688.81;;;33.13;49.41
29903;BME280;30288;50.514;9.678;2022-08-03T10:19:48;98687.53;;;33.02;49.11
29903;BME280;30288;50.514;9.678;2022-08-03T10:22:11;98683.59;;;33.13;49.25
29903;BME280;30288;50.514;9.678;2022-08-03T10:24:25;98682.91;;;33.19;52.20
29903;BME280;30288;50.514;9.678;2022-08-03T10:26:44;98688.38;;;33.24;52.48
29903;BME280;30288;50.514;9.678;2022-08-03T10:28:59;98687.88;;;33.35;51.22
29903;BME280;30288;50.514;9.678;2022-08-03T10:31:15;98681.19;;;33.60;50.28
29903;BME280;30288;50.514;9.678;2022-08-03T10:33:36;98676.53;;;33.77;50.74
29903;BME280;30288;50.514;9.678;2022-08-03T10:35:56;98682.00;;;33.61;48.64
29903;BME280;30288;50.514;9.678;2022-08-03T10:38:11;98672.75;;;33.86;49.15
29903;BME280;30288;50.514;9.678;2022-08-03T10:40:29;98664.56;;;33.96;49.17
29903;BME280;30288;50.514;9.678;2022-08-03T10:42:50;98663.84;;;34.15;50.07
29903;BME280;30288;50.514;9.678;2022-08-03T10:45:08;98659.28;;;33.89;46.76
29903;BME280;30288;50.514;9.678;2022-08-03T10:47:16;98665.72;;;33.87;46.95
29903;BME280;30288;50.514;9.678;2022-08-03T10:49:30;98665.75;;;33.65;45.90
29903;BME280;30288;50.514;9.678;2022-08-03T10:51:48;98664.13;;;33.30;50.11
29903;BME280;30288;50.514;9.678;2022-08-03T10:54:02;98657.00;;;33.45;48.90
29903;BME280;30288;50.514;9.678;2022-08-03T10:56:38;98660.50;;;33.31;51.16
29903;BME280;30288;50.514;9.678;2022-08-03T10:59:06;98657.25;;;33.50;49.08
29903;BME280;30288;50.514;9.678;2022-08-03T11:01:47;98659.28;;;33.82;49.39
29903;BME280;30288;50.514;9.678;2022-08-03T11:04:17;98654.09;;;34.30;49.57
29903;BME280;30288;50.514;9.678;2022-08-03T11:06:31;98655.47;;;33.57;45.65
29903;BME280;30288;50.514;9.678;2022-08-03T11:09:12;98653.25;;;33.82;49.55
29903;BME280;30288;50.514;9.678;2022-08-03T11:11:24;98660.09;;;33.90;48.87
29903;BME280;30288;50.514;9.678;2022-08-03T11:13:57;98645.50;;;34.49;48.13
29903;BME280;30288;50.514;9.678;2022-08-03T11:16:19;98643.78;;;34.83;46.74
29903;BME280;30288;50.514;9.678;2022-08-03T11:18:25;98639.94;;;34.79;44.50
29903;BME280;30288;50.514;9.678;2022-08-03T11:20:47;98635.44;;;34.53;47.00
29903;BME280;30288;50.514;9.678;2022-08-03T11:23:01;98636.28;;;34.66;46.38
29903;BME280;30288;50.514;9.678;2022-08-03T11:25:14;98630.19;;;34.46;45.20
29903;BME280;30288;50.514;9.678;2022-08-03T11:27:32;98634.22;;;34.49;47.25
29903;BME280;30288;50.514;9.678;2022-08-03T11:29:55;98634.59;;;34.39;46.77
29903;BME280;30288;50.514;9.678;2022-08-03T11:32:00;98638.69;;;34.61;48.44
29903;BME280;30288;50.514;9.678;2022-08-03T11:34:14;98633.50;;;34.75;47.50
29903;BME280;30288;50.514;9.678;2022-08-03T11:36:26;98639.94;;;34.79;47.60
29903;BME280;30288;50.514;9.678;2022-08-03T11:39:14;98629.81;;;34.49;46.18
29903;BME280;30288;50.514;9.678;2022-08-03T11:41:32;98632.44;;;34.62;45.68
29903;BME280;30288;50.514;9.678;2022-08-03T11:43:53;98637.91;;;34.74;44.52
29903;BME280;30288;50.514;9.678;2022-08-03T11:46:12;98634.72;;;35.05;45.68
29903;BME280;30288;50.514;9.678;2022-08-03T11:48:35;98630.28;;;35.12;43.04
29903;BME280;30288;50.514;9.678;2022-08-03T11:50:53;98633.09;;;35.57;45.32
29903;BME280;30288;50.514;9.678;2022-08-03T11:53:06;98627.91;;;35.17;43.15
29903;BME280;30288;50.514;9.678;2022-08-03T11:55:20;98631.91;;;35.52;44.08
29903;BME280;30288;50.514;9.678;2022-08-03T11:57:38;98624.44;;;35.36;43.57
29903;BME280;30288;50.514;9.678;2022-08-03T12:00:26;98633.09;;;35.57;45.59
29903;BME280;30288;50.514;9.678;2022-08-03T12:02:32;98629.09;;;35.47;42.20
29903;BME280;30288;50.514;9.678;2022-08-03T12:04:49;98629.28;;;35.13;45.56
29903;BME280;30288;50.514;9.678;2022-08-03T12:06:59;98623.22;;;34.93;44.04
29903;BME280;30288;50.514;9.678;2022-08-03T12:09:18;98629.88;;;35.41;45.19